createdAt,value
2022-11-01T00:02:24.639Z,100.00
2022-11-01T00:04:56.270Z,100.00
2022-11-01T00:07:28.231Z,100.00
2022-11-01T00:09:59.741Z,100.00
2022-11-01T00:12:31.548Z,100.00
2022-11-01T00:15:03.072Z,100.00
2022-11-01T00:17:35.108Z,100.00
2022-11-01T00:20:06.561Z,100.00
2022-11-01T00:22:38.116Z,100.00
2022-11-01T00:25:09.664Z,100.00
2022-11-01T00:27:41.184Z,100.00
2022-11-01T00:30:12.697Z,100.00
2022-11-01T00:32:44.500Z,100.00
2022-11-01T00:35:16.045Z,100.00
2022-11-01T00:37:47.847Z,100.00
2022-11-01T00:40:19.314Z,100.00
2022-11-01T00:42:51.257Z,100.00
2022-11-01T00:45:22.745Z,100.00
2022-11-01T00:47:54.528Z,100.00
2022-11-01T00:50:26.003Z,100.00
2022-11-01T00:52:57.981Z,100.00
2022-11-01T00:55:29.488Z,100.00
2022-11-01T00:58:01.466Z,100.00
2022-11-01T01:00:33.211Z,100.00
2022-11-01T01:03:04.869Z,100.00
2022-11-01T01:05:36.534Z,100.00
2022-11-01T01:08:08.013Z,100.00
2022-11-01T01:10:39.753Z,100.00
2022-11-01T01:13:11.246Z,100.00
2022-11-01T01:15:43.219Z,100.00
2022-11-01T01:18:14.689Z,100.00
2022-11-01T01:20:46.487Z,100.00
2022-11-01T01:23:18.029Z,100.00
2022-11-01T01:25:49.821Z,100.00
2022-11-01T01:28:21.297Z,100.00
2022-11-01T01:30:53.139Z,100.00
2022-11-01T01:33:24.606Z,100.00
2022-11-01T01:35:56.450Z,100.00
2022-11-01T01:38:27.963Z,100.00
2022-11-01T01:41:19.700Z,100.00
2022-11-01T01:43:51.177Z,100.00
2022-11-01T01:46:23.081Z,100.00
2022-11-01T01:48:54.624Z,100.00
2022-11-01T01:51:26.481Z,100.00
2022-11-01T01:53:58.230Z,100.00
2022-11-01T01:56:29.781Z,100.00
2022-11-01T01:59:01.457Z,100.00
2022-11-01T02:01:33.319Z,100.00
2022-11-01T02:04:04.827Z,100.00
2022-11-01T02:06:36.627Z,100.00
2022-11-01T02:09:08.093Z,100.00
2022-11-01T02:11:41.059Z,100.00
2022-11-01T02:14:12.525Z,100.00
2022-11-01T02:16:44.386Z,100.00
2022-11-01T02:19:15.846Z,100.00
2022-11-01T02:21:47.660Z,100.00
2022-11-01T02:24:19.126Z,100.00
2022-11-01T02:26:50.890Z,100.00
2022-11-01T02:29:22.394Z,100.00
2022-11-01T02:31:54.177Z,100.00
2022-11-01T02:34:25.638Z,100.00
2022-11-01T02:36:57.661Z,100.00
2022-11-01T02:39:29.172Z,100.00
2022-11-01T02:42:00.692Z,100.00
2022-11-01T02:44:32.546Z,100.00
2022-11-01T02:47:04.037Z,100.00
2022-11-01T02:49:35.864Z,100.00
2022-11-01T02:52:07.394Z,100.00
2022-11-01T02:54:39.313Z,100.00
2022-11-01T02:57:11.239Z,100.00
2022-11-01T02:59:42.758Z,100.00
2022-11-01T03:02:14.321Z,100.00
2022-11-01T03:04:46.237Z,100.00
2022-11-01T03:07:18.015Z,100.00
2022-11-01T03:09:49.554Z,100.00
2022-11-01T03:12:21.114Z,100.00
2022-11-01T03:14:52.965Z,100.00
2022-11-01T03:17:24.502Z,100.00
2022-11-01T03:19:56.316Z,100.00
2022-11-01T03:22:27.835Z,100.00
2022-11-01T03:24:59.855Z,100.00
2022-11-01T03:27:32.676Z,100.00
2022-11-01T03:30:04.570Z,100.00
2022-11-01T03:32:36.109Z,100.00
2022-11-01T03:35:07.904Z,100.00
2022-11-01T03:37:39.433Z,100.00
2022-11-01T03:40:11.470Z,100.00
2022-11-01T03:42:42.973Z,100.00
2022-11-01T03:45:14.574Z,100.00
2022-11-01T03:47:46.308Z,100.00
2022-11-01T03:50:18.188Z,100.00
2022-11-01T03:52:49.747Z,100.00
2022-11-01T03:55:21.700Z,100.00
2022-11-01T03:57:53.204Z,100.00
2022-11-01T04:00:24.782Z,100.00
2022-11-01T04:02:56.291Z,100.00
2022-11-01T04:05:28.123Z,100.00
2022-11-01T04:07:59.603Z,100.00
2022-11-01T04:10:31.125Z,100.00
2022-11-01T04:13:02.843Z,100.00
2022-11-01T04:15:53.368Z,100.00
2022-11-01T04:18:43.535Z,100.00
2022-11-01T04:21:15.392Z,100.00
2022-11-01T04:23:46.989Z,100.00
2022-11-01T04:26:18.787Z,100.00
2022-11-01T04:28:59.467Z,100.00
2022-11-01T04:31:31.384Z,100.00
2022-11-01T04:34:02.884Z,100.00
2022-11-01T04:36:34.913Z,100.00
2022-11-01T04:39:07.127Z,100.00
2022-11-01T04:41:38.956Z,100.00
2022-11-01T04:44:10.445Z,100.00
2022-11-01T04:46:42.272Z,100.00
2022-11-01T04:49:13.784Z,100.00
2022-11-01T04:51:45.605Z,100.00
2022-11-01T04:54:17.117Z,100.00
2022-11-01T04:56:51.429Z,100.00
2022-11-01T04:59:22.950Z,100.00
2022-11-01T05:01:54.885Z,100.00
2022-11-01T05:04:26.486Z,100.00
2022-11-01T05:06:58.481Z,100.00
2022-11-01T05:09:31.139Z,100.00
2022-11-01T05:12:03.295Z,100.00
2022-11-01T05:14:34.854Z,100.00
2022-11-01T05:17:06.724Z,100.00
2022-11-01T05:19:38.275Z,100.00
2022-11-01T05:22:10.152Z,100.00
2022-11-01T05:27:14.424Z,100.00
2022-11-01T05:29:45.906Z,100.00
2022-11-01T05:32:18.115Z,100.00
2022-11-01T05:34:49.859Z,100.00
2022-11-01T05:37:25.779Z,100.00
2022-11-01T05:39:59.521Z,100.00
2022-11-01T05:42:31.548Z,100.00
2022-11-01T05:45:03.528Z,100.00
2022-11-01T05:47:35.156Z,100.00
2022-11-01T05:50:06.969Z,100.00
2022-11-01T05:52:38.496Z,100.00
2022-11-01T05:55:10.469Z,100.00
2022-11-01T05:57:42.037Z,100.00
2022-11-01T06:00:13.948Z,100.00
2022-11-01T06:02:45.527Z,100.00
2022-11-01T06:05:17.440Z,100.00
2022-11-01T06:07:49.223Z,100.00
2022-11-01T06:10:21.087Z,100.00
2022-11-01T06:12:52.603Z,100.00
2022-11-01T06:15:24.538Z,100.00
2022-11-01T06:17:56.724Z,100.00
2022-11-01T06:20:29.869Z,100.00
2022-11-01T06:23:01.362Z,100.00
2022-11-01T06:25:33.168Z,100.00
2022-11-01T06:28:04.922Z,100.00
2022-11-01T06:30:39.412Z,100.00
2022-11-01T06:33:10.981Z,100.00
2022-11-01T06:35:42.884Z,100.00
2022-11-01T06:38:14.415Z,100.00
2022-11-01T06:40:46.234Z,100.00
2022-11-01T06:43:17.728Z,100.00
2022-11-01T06:45:49.228Z,100.00
2022-11-01T06:48:20.750Z,100.00
2022-11-01T06:50:54.343Z,100.00
2022-11-01T06:53:25.849Z,100.00
2022-11-01T06:55:57.860Z,100.00
2022-11-01T06:58:29.363Z,100.00
2022-11-01T07:01:01.336Z,100.00
2022-11-01T07:03:32.895Z,100.00
2022-11-01T07:06:04.713Z,100.00
2022-11-01T07:08:36.231Z,100.00
2022-11-01T07:11:08.041Z,100.00
2022-11-01T07:13:39.586Z,100.00
2022-11-01T07:16:11.508Z,100.00
2022-11-01T07:18:43.008Z,100.00
2022-11-01T07:21:14.877Z,100.00
2022-11-01T07:23:46.356Z,100.00
2022-11-01T07:26:18.286Z,100.00
2022-11-01T07:28:50.107Z,100.00
2022-11-01T07:31:21.602Z,100.00
2022-11-01T07:33:53.414Z,100.00
2022-11-01T07:36:24.905Z,100.00
2022-11-01T07:38:56.629Z,100.00
2022-11-01T07:41:28.146Z,100.00
2022-11-01T07:43:59.858Z,100.00
2022-11-01T07:46:31.358Z,100.00
2022-11-01T07:49:03.733Z,100.00
2022-11-01T07:51:35.231Z,100.00
2022-11-01T07:54:07.144Z,100.00
2022-11-01T07:56:38.646Z,100.00
2022-11-01T07:59:10.191Z,100.00
2022-11-01T08:01:41.855Z,100.00
2022-11-01T08:04:13.877Z,100.00
2022-11-01T08:06:47.066Z,100.00
2022-11-01T08:09:24.448Z,100.00
2022-11-01T08:11:56.091Z,100.00
2022-11-01T08:14:27.932Z,100.00
2022-11-01T08:17:01.706Z,100.00
2022-11-01T08:19:33.703Z,100.00
2022-11-01T08:22:05.469Z,100.00
2022-11-01T08:24:36.998Z,100.00
2022-11-01T08:27:08.538Z,100.00
2022-11-01T08:29:40.419Z,100.00
2022-11-01T08:32:11.906Z,100.00
2022-11-01T08:34:43.843Z,100.00
2022-11-01T08:37:15.387Z,100.00
2022-11-01T08:39:47.090Z,100.00
2022-11-01T08:42:19.161Z,100.00
2022-11-01T08:44:51.180Z,100.00
2022-11-01T08:47:22.681Z,100.00
2022-11-01T08:49:54.484Z,100.00
2022-11-01T08:52:26.035Z,100.00
2022-11-01T08:54:57.829Z,100.00
2022-11-01T08:57:29.345Z,100.00
2022-11-01T09:00:01.142Z,100.00
2022-11-01T09:02:32.781Z,100.00
2022-11-01T09:05:06.853Z,100.00
2022-11-01T09:07:38.355Z,100.00
2022-11-01T09:10:10.717Z,100.00
2022-11-01T09:12:42.679Z,100.00
2022-11-01T09:15:14.224Z,100.00
2022-11-01T09:17:46.061Z,100.00
2022-11-01T09:20:17.552Z,100.00
2022-11-01T09:22:49.483Z,99.04
2022-11-01T09:25:21.249Z,100.00
2022-11-01T09:27:53.250Z,100.00
2022-11-01T09:30:24.801Z,100.00
2022-11-01T09:32:56.668Z,100.00
2022-11-01T09:35:29.817Z,100.00
2022-11-01T09:38:01.737Z,100.00
2022-11-01T09:40:33.248Z,100.00
2022-11-01T09:43:05.286Z,100.00
2022-11-01T09:45:36.932Z,100.00
2022-11-01T09:48:08.704Z,100.00
2022-11-01T09:50:40.228Z,100.00
2022-11-01T09:53:12.108Z,100.00
2022-11-01T09:55:43.607Z,100.00
2022-11-01T09:58:15.468Z,100.00
2022-11-01T10:00:47.040Z,100.00
2022-11-01T10:03:18.958Z,100.00
2022-11-01T10:05:51.405Z,100.00
2022-11-01T10:08:23.307Z,100.00
2022-11-01T10:10:54.843Z,100.00
2022-11-01T10:13:26.759Z,100.00
2022-11-01T10:15:58.269Z,100.00
2022-11-01T10:18:30.205Z,100.00
2022-11-01T10:21:01.774Z,100.00
2022-11-01T10:23:33.712Z,100.00
2022-11-01T10:26:05.204Z,100.00
2022-11-01T10:28:36.984Z,100.00
2022-11-01T10:31:08.477Z,100.00
2022-11-01T10:33:40.428Z,100.00
2022-11-01T10:36:11.917Z,100.00
2022-11-01T10:41:36.567Z,100.00
2022-11-01T10:44:08.454Z,100.00
2022-11-01T10:46:39.966Z,100.00
2022-11-01T10:49:15.155Z,100.00
2022-11-01T10:51:46.702Z,100.00
2022-11-01T10:54:18.550Z,100.00
2022-11-01T10:56:50.052Z,98.39
2022-11-01T10:59:21.911Z,95.35
2022-11-01T11:01:53.571Z,92.59
2022-11-01T11:04:26.697Z,89.43
2022-11-01T11:06:58.205Z,87.55
2022-11-01T11:09:30.066Z,83.48
2022-11-01T11:12:01.583Z,83.48
2022-11-01T11:14:33.500Z,84.92
2022-11-01T11:17:05.091Z,86.51
2022-11-01T11:19:39.250Z,88.80
2022-11-01T11:22:12.444Z,89.70
2022-11-01T11:24:44.435Z,89.54
2022-11-01T11:27:16.365Z,91.58
2022-11-01T11:29:51.075Z,91.27
2022-11-01T11:32:25.979Z,92.94
2022-11-01T11:34:58.334Z,93.43
2022-11-01T11:37:30.150Z,95.59
2022-11-01T11:40:02.028Z,95.67
2022-11-01T11:42:33.927Z,97.31
2022-11-01T11:45:05.514Z,98.09
2022-11-01T11:47:38.057Z,98.94
2022-11-01T11:50:09.549Z,99.89
2022-11-01T11:52:42.541Z,100.00
2022-11-01T11:55:14.048Z,100.00
2022-11-01T11:57:46.025Z,100.00
2022-11-01T12:00:18.013Z,100.00
2022-11-01T12:02:49.871Z,100.00
2022-11-01T12:05:26.637Z,100.00
2022-11-01T12:07:58.518Z,100.00
2022-11-01T12:10:30.021Z,100.00
2022-11-01T12:13:02.256Z,100.00
2022-11-01T12:15:36.948Z,100.00
2022-11-01T12:18:15.576Z,100.00
2022-11-01T12:20:47.721Z,100.00
2022-11-01T12:23:19.545Z,100.00
2022-11-01T12:25:51.041Z,100.00
2022-11-01T12:28:22.890Z,100.00
2022-11-01T12:30:55.598Z,100.00
2022-11-01T12:33:27.467Z,100.00
2022-11-01T12:35:59.757Z,100.00
2022-11-01T12:38:31.618Z,100.00
2022-11-01T12:41:03.131Z,100.00
2022-11-01T12:43:34.922Z,100.00
2022-11-01T12:46:06.434Z,100.00
2022-11-01T12:48:37.972Z,100.00
2022-11-01T12:51:09.468Z,100.00
2022-11-01T12:53:41.245Z,100.00
2022-11-01T12:56:13.074Z,100.00
2022-11-01T12:58:45.504Z,100.00
2022-11-01T13:01:17.167Z,100.00
2022-11-01T13:03:50.077Z,100.00
2022-11-01T13:06:21.610Z,100.00
2022-11-01T13:08:53.153Z,100.00
2022-11-01T13:11:24.670Z,100.00
2022-11-01T13:13:56.590Z,100.00
2022-11-01T13:16:28.088Z,100.00
2022-11-01T13:18:59.773Z,100.00
2022-11-01T13:21:31.310Z,100.00
2022-11-01T13:24:03.145Z,100.00
2022-11-01T13:26:35.365Z,100.00
2022-11-01T13:29:07.254Z,99.59
2022-11-01T13:31:38.914Z,99.29
2022-11-01T13:34:10.746Z,100.00
2022-11-01T13:36:42.251Z,100.00
2022-11-01T13:39:14.144Z,100.00
2022-11-01T13:41:45.639Z,100.00
2022-11-01T13:44:17.966Z,100.00
2022-11-01T13:46:49.471Z,100.00
2022-11-01T13:49:21.366Z,100.00
2022-11-01T13:51:56.588Z,100.00
2022-11-01T13:54:28.506Z,100.00
2022-11-01T13:57:00.075Z,100.00
2022-11-01T13:59:31.923Z,100.00
2022-11-01T14:02:03.507Z,100.00
2022-11-01T14:04:35.605Z,100.00
2022-11-01T14:07:07.374Z,100.00
2022-11-01T14:09:39.186Z,100.00
2022-11-01T14:12:11.392Z,100.00
2022-11-01T14:14:44.053Z,100.00
2022-11-01T14:17:15.547Z,100.00
2022-11-01T14:19:47.683Z,100.00
2022-11-01T14:22:19.188Z,100.00
2022-11-01T14:24:51.126Z,100.00
2022-11-01T14:27:23.234Z,100.00
2022-11-01T14:29:54.784Z,100.00
2022-11-01T14:32:26.656Z,100.00
2022-11-01T14:34:59.745Z,99.79
2022-11-01T14:37:31.684Z,99.31
2022-11-01T14:40:04.165Z,99.10
2022-11-01T14:42:35.974Z,100.00
2022-11-01T14:45:07.608Z,100.00
2022-11-01T14:47:39.193Z,100.00
2022-11-01T14:50:10.711Z,100.00
2022-11-01T14:52:42.671Z,100.00
2022-11-01T14:55:14.209Z,100.00
2022-11-01T14:57:48.690Z,100.00
2022-11-01T15:00:21.443Z,100.00
2022-11-01T15:02:53.347Z,100.00
2022-11-01T15:05:25.004Z,100.00
2022-11-01T15:07:56.940Z,100.00
2022-11-01T15:10:28.445Z,100.00
2022-11-01T15:13:00.398Z,100.00
2022-11-01T15:15:31.933Z,100.00
2022-11-01T15:18:04.022Z,100.00
2022-11-01T15:20:35.822Z,100.00
2022-11-01T15:23:07.389Z,100.00
2022-11-01T15:25:38.925Z,100.00
2022-11-01T15:28:10.717Z,100.00
2022-11-01T15:30:42.221Z,100.00
2022-11-01T15:33:13.901Z,100.00
2022-11-01T15:35:45.409Z,100.00
2022-11-01T15:38:20.647Z,100.00
2022-11-01T15:40:53.319Z,100.00
2022-11-01T15:43:25.305Z,100.00
2022-11-01T15:45:56.910Z,100.00
2022-11-01T15:48:28.999Z,100.00
2022-11-01T15:51:00.733Z,100.00
2022-11-01T15:53:32.596Z,100.00
2022-11-01T15:56:04.291Z,100.00
2022-11-01T15:58:36.071Z,100.00
2022-11-01T16:01:10.335Z,100.00
2022-11-01T16:03:42.347Z,100.00
2022-11-01T16:06:13.948Z,100.00
2022-11-01T16:08:45.991Z,100.00
2022-11-01T16:11:18.128Z,100.00
2022-11-01T16:13:50.382Z,100.00
2022-11-01T16:16:21.984Z,100.00
2022-11-01T16:18:55.381Z,100.00
2022-11-01T16:21:26.893Z,100.00
2022-11-01T16:23:58.771Z,100.00
2022-11-01T16:26:30.411Z,100.00
2022-11-01T16:29:01.998Z,100.00
2022-11-01T16:31:33.489Z,100.00
2022-11-01T16:34:05.314Z,100.00
2022-11-01T16:36:36.904Z,100.00
2022-11-01T16:39:08.729Z,100.00
2022-11-01T16:41:41.099Z,100.00
2022-11-01T16:44:13.284Z,100.00
2022-11-01T16:46:44.787Z,100.00
2022-11-01T16:49:16.689Z,100.00
2022-11-01T16:51:48.274Z,100.00
2022-11-01T16:54:20.129Z,100.00
2022-11-01T16:56:51.639Z,100.00
2022-11-01T16:59:23.734Z,100.00
2022-11-01T17:01:55.641Z,100.00
2022-11-01T17:04:27.719Z,100.00
2022-11-01T17:06:59.303Z,100.00
2022-11-01T17:09:31.293Z,100.00
2022-11-01T17:12:03.327Z,100.00
2022-11-01T17:14:38.262Z,100.00
2022-11-01T17:17:09.773Z,100.00
2022-11-01T17:19:41.679Z,100.00
2022-11-01T17:22:13.266Z,100.00
2022-11-01T17:24:45.198Z,100.00
2022-11-01T17:27:16.873Z,100.00
2022-11-01T17:29:48.500Z,100.00
2022-11-01T17:32:20.546Z,100.00
2022-11-01T17:34:53.596Z,100.00
2022-11-01T17:37:25.464Z,100.00
2022-11-01T17:39:56.951Z,100.00
2022-11-01T17:42:28.450Z,100.00
2022-11-01T17:45:00.087Z,100.00
2022-11-01T17:47:31.894Z,100.00
2022-11-01T17:50:03.389Z,100.00
2022-11-01T17:52:35.215Z,100.00
2022-11-01T17:55:07.147Z,100.00
2022-11-01T17:57:38.997Z,100.00
2022-11-01T18:00:10.850Z,100.00
2022-11-01T18:02:42.757Z,100.00
2022-11-01T18:05:14.252Z,100.00
2022-11-01T18:07:47.892Z,100.00
2022-11-01T18:10:19.397Z,100.00
2022-11-01T18:12:51.366Z,100.00
2022-11-01T18:15:22.857Z,100.00
2022-11-01T18:17:55.930Z,100.00
2022-11-01T18:20:28.193Z,100.00
2022-11-01T18:22:59.732Z,100.00
2022-11-01T18:25:31.234Z,100.00
2022-11-01T18:28:03.061Z,100.00
2022-11-01T18:30:34.707Z,100.00
2022-11-01T18:33:06.323Z,100.00
2022-11-01T18:35:37.811Z,100.00
2022-11-01T18:38:09.326Z,100.00
2022-11-01T18:40:40.823Z,100.00
2022-11-01T18:43:12.332Z,100.00
2022-11-01T18:45:58.021Z,100.00
2022-11-01T18:48:35.805Z,100.00
2022-11-01T18:51:07.304Z,100.00
2022-11-01T18:53:39.198Z,100.00
2022-11-01T18:56:10.782Z,100.00
2022-11-01T18:58:42.634Z,100.00
2022-11-01T19:01:14.379Z,100.00
2022-11-01T19:03:46.329Z,100.00
2022-11-01T19:06:18.437Z,100.00
2022-11-01T19:08:50.284Z,100.00
2022-11-01T19:11:21.904Z,100.00
2022-11-01T19:13:53.775Z,100.00
2022-11-01T19:16:25.445Z,100.00
2022-11-01T19:18:57.804Z,100.00
2022-11-01T19:21:31.996Z,100.00
2022-11-01T19:24:10.171Z,100.00
2022-11-01T19:26:42.777Z,100.00
2022-11-01T19:29:14.331Z,100.00
2022-11-01T19:31:47.592Z,100.00
2022-11-01T19:34:20.381Z,100.00
2022-11-01T19:36:52.732Z,100.00
2022-11-01T19:39:24.683Z,100.00
2022-11-01T19:41:56.229Z,100.00
2022-11-01T19:44:28.090Z,100.00
2022-11-01T19:46:59.607Z,100.00
2022-11-01T19:49:31.529Z,100.00
2022-11-01T19:52:03.038Z,100.00
2022-11-01T19:54:35.720Z,100.00
2022-11-01T19:57:07.249Z,100.00
2022-11-01T19:59:39.041Z,100.00
2022-11-01T20:02:10.649Z,100.00
2022-11-01T20:04:42.601Z,100.00
2022-11-01T20:07:14.147Z,100.00
2022-11-01T20:09:46.172Z,100.00
2022-11-01T20:12:21.990Z,100.00
2022-11-01T20:14:53.969Z,100.00
2022-11-01T20:17:26.492Z,100.00
2022-11-01T20:19:58.039Z,100.00
2022-11-01T20:22:29.859Z,100.00
2022-11-01T20:25:03.215Z,100.00
2022-11-01T20:27:34.726Z,100.00
2022-11-01T20:30:06.565Z,100.00
2022-11-01T20:32:38.524Z,100.00
2022-11-01T20:35:10.081Z,100.00
2022-11-01T20:37:41.604Z,100.00
2022-11-01T20:40:25.028Z,100.00
2022-11-01T20:42:57.213Z,100.00
2022-11-01T20:45:28.774Z,100.00
2022-11-01T20:48:00.589Z,100.00
2022-11-01T20:50:32.090Z,100.00
2022-11-01T20:53:06.060Z,100.00
2022-11-01T20:55:37.799Z,100.00
2022-11-01T20:58:09.651Z,100.00
2022-11-01T21:00:41.186Z,100.00
2022-11-01T21:03:13.540Z,100.00
2022-11-01T21:05:45.396Z,100.00
2022-11-01T21:08:16.942Z,100.00
2022-11-01T21:10:48.441Z,100.00
2022-11-01T21:13:21.700Z,100.00
2022-11-01T21:15:53.456Z,100.00
2022-11-01T21:18:25.393Z,100.00
2022-11-01T21:20:58.878Z,100.00
2022-11-01T21:23:32.600Z,100.00
2022-11-01T21:26:04.172Z,100.00
2022-11-01T21:28:36.162Z,100.00
2022-11-01T21:31:07.707Z,100.00
2022-11-01T21:33:39.762Z,100.00
2022-11-01T21:36:11.306Z,100.00
2022-11-01T21:38:43.175Z,100.00
2022-11-01T21:41:14.718Z,100.00
2022-11-01T21:43:46.624Z,100.00
2022-11-01T21:46:18.185Z,100.00
2022-11-01T21:48:49.705Z,100.00
2022-11-01T21:51:21.201Z,100.00
2022-11-01T21:53:53.223Z,100.00
2022-11-01T21:56:24.721Z,100.00
2022-11-01T21:58:56.627Z,100.00
2022-11-01T22:01:28.364Z,100.00
2022-11-01T22:03:59.977Z,100.00
2022-11-01T22:06:31.537Z,100.00
2022-11-01T22:09:03.362Z,100.00
2022-11-01T22:11:34.891Z,100.00
2022-11-01T22:14:06.720Z,100.00
2022-11-01T22:16:38.241Z,100.00
2022-11-01T22:19:10.305Z,100.00
2022-11-01T22:21:41.889Z,100.00
2022-11-01T22:24:13.778Z,100.00
2022-11-01T22:26:45.350Z,100.00
2022-11-01T22:29:17.328Z,100.00
2022-11-01T22:31:48.840Z,100.00
2022-11-01T22:34:21.595Z,100.00
2022-11-01T22:36:53.098Z,100.00
2022-11-01T22:39:25.502Z,100.00
2022-11-01T22:41:57.005Z,100.00
2022-11-01T22:44:28.867Z,100.00
2022-11-01T22:47:00.375Z,100.00
2022-11-01T22:49:32.336Z,100.00
2022-11-01T22:52:04.295Z,100.00
2022-11-01T22:54:35.894Z,100.00
2022-11-01T22:57:07.785Z,100.00
2022-11-01T22:59:39.313Z,100.00
2022-11-01T23:02:11.281Z,100.00
2022-11-01T23:04:42.867Z,100.00
2022-11-01T23:07:14.710Z,100.00
2022-11-01T23:09:46.206Z,100.00
2022-11-01T23:12:36.491Z,100.00
2022-11-01T23:15:08.051Z,100.00
2022-11-01T23:17:39.808Z,100.00
2022-11-01T23:20:11.311Z,100.00
2022-11-01T23:22:43.157Z,100.00
2022-11-01T23:25:14.744Z,100.00
2022-11-01T23:27:46.398Z,100.00
2022-11-01T23:30:17.910Z,100.00
2022-11-01T23:32:49.995Z,100.00
2022-11-01T23:35:21.669Z,100.00
2022-11-01T23:37:53.503Z,100.00
2022-11-01T23:40:25.113Z,100.00
2022-11-01T23:42:56.965Z,100.00
2022-11-01T23:45:28.827Z,100.00
2022-11-01T23:48:00.627Z,100.00
2022-11-01T23:50:32.203Z,100.00
2022-11-01T23:53:04.397Z,100.00
2022-11-01T23:55:36.339Z,100.00
2022-11-01T23:58:08.382Z,100.00
